Time;durP1;ratioP1;P1;durP2;ratioP2;P2;SDS_P1;SDS_P2;PMS_P1;PMS_P2;Temp;Humidity;BMP_temperature;BMP_pressure;BME280_temperature;BME280_humidity;BME280_pressure;Samples;Min_cycle;Max_cycle;Signal;HPM_P1;HPM_P2
2022/11/26 00:00:17;;;;;;;28.40;7.70;;;4.60;99.90;;;;;;5008427;28;20404;-74
2022/11/26 00:02:43;;;;;;;27.15;7.53;;;4.60;99.90;;;;;;5004248;28;20946;-74
2022/11/26 00:05:12;;;;;;;30.77;7.90;;;4.60;99.90;;;;;;5002691;28;20412;-74
2022/11/26 00:07:39;;;;;;;27.58;8.00;;;4.60;99.90;;;;;;5037014;28;20409;-74
2022/11/26 00:10:15;;;;;;;22.27;7.60;;;4.60;99.90;;;;;;5051433;28;20406;-74
2022/11/26 00:12:41;;;;;;;26.30;7.80;;;4.60;99.90;;;;;;5006009;28;20482;-74
2022/11/26 00:15:19;;;;;;;30.40;7.45;;;4.60;99.90;;;;;;5031593;28;20828;-74
2022/11/26 00:17:45;;;;;;;26.50;8.00;;;4.60;99.90;;;;;;5029220;28;20420;-74
2022/11/26 00:20:11;;;;;;;30.27;7.93;;;4.60;99.90;;;;;;5050340;28;20791;-73
2022/11/26 00:22:52;;;;;;;23.17;7.72;;;4.60;99.90;;;;;;5024401;28;20873;-74
2022/11/26 00:25:23;;;;;;;30.10;7.97;;;4.70;99.90;;;;;;5038967;28;20416;-74
2022/11/26 00:27:50;;;;;;;27.02;7.68;;;4.70;99.90;;;;;;5039381;28;20443;-75
2022/11/26 00:30:18;;;;;;;30.47;7.83;;;4.70;99.90;;;;;;5033498;28;20399;-75
2022/11/26 00:32:44;;;;;;;27.83;7.20;;;4.70;99.90;;;;;;5031607;28;20466;-74
2022/11/26 00:35:10;;;;;;;27.40;7.47;;;4.70;99.90;;;;;;5049275;28;20412;-74
2022/11/26 00:37:42;;;;;;;23.45;6.95;;;4.70;99.90;;;;;;5040340;28;20411;-74
2022/11/26 00:40:34;;;;;;;25.23;7.00;;;4.70;99.90;;;;;;5037036;28;20451;-74
2022/11/26 00:43:00;;;;;;;23.10;7.13;;;4.70;99.90;;;;;;5024526;28;20451;-75
2022/11/26 00:45:28;;;;;;;29.20;7.75;;;4.70;99.90;;;;;;5032235;28;20438;-75
2022/11/26 00:47:56;;;;;;;29.55;7.63;;;4.70;99.90;;;;;;5012374;28;20411;-75
2022/11/26 00:50:25;;;;;;;26.83;7.38;;;4.70;99.90;;;;;;5017845;28;20422;-75
2022/11/26 00:52:54;;;;;;;24.48;7.57;;;4.70;99.90;;;;;;5030852;28;20434;-74
2022/11/26 00:55:38;;;;;;;28.80;7.40;;;4.70;99.90;;;;;;4996632;28;20465;-74
2022/11/26 00:58:06;;;;;;;29.35;7.65;;;4.70;99.90;;;;;;5018534;28;21252;-74
2022/11/26 01:00:33;;;;;;;22.75;7.00;;;4.70;99.90;;;;;;5036484;28;20446;-75
2022/11/26 01:03:00;;;;;;;27.67;7.57;;;4.70;99.90;;;;;;5020083;28;20804;-74
2022/11/26 01:05:32;;;;;;;22.30;7.15;;;4.70;99.90;;;;;;5034649;28;20458;-74
2022/11/26 01:08:01;;;;;;;26.33;7.22;;;4.70;99.90;;;;;;5012446;28;20438;-74
2022/11/26 01:10:28;;;;;;;26.40;7.55;;;4.70;99.90;;;;;;5011348;28;20498;-75
2022/11/26 01:12:56;;;;;;;32.83;7.40;;;4.70;99.90;;;;;;5026534;28;20423;-75
2022/11/26 01:15:23;;;;;;;30.40;7.80;;;4.70;99.90;;;;;;5029986;28;20411;-74
2022/11/26 01:17:50;;;;;;;24.67;7.57;;;4.70;99.90;;;;;;5026439;28;20413;-74
2022/11/26 01:20:19;;;;;;;29.63;7.40;;;4.70;99.90;;;;;;5029288;28;20404;-75
2022/11/26 01:22:44;;;;;;;23.75;7.50;;;4.70;99.90;;;;;;5002089;28;20450;-74
2022/11/26 01:25:10;;;;;;;24.77;7.55;;;4.70;99.90;;;;;;5029581;28;20404;-74
2022/11/26 01:27:35;;;;;;;29.13;7.93;;;4.70;99.90;;;;;;5030363;28;20410;-74
2022/11/26 01:30:01;;;;;;;31.60;8.10;;;4.70;99.90;;;;;;5011403;28;20403;-75
2022/11/26 01:32:27;;;;;;;28.10;8.15;;;4.70;99.90;;;;;;5029800;28;20750;-75
2022/11/26 01:34:52;;;;;;;26.93;8.30;;;4.60;99.90;;;;;;5013159;28;20397;-75
2022/11/26 01:37:18;;;;;;;35.22;8.98;;;4.60;99.90;;;;;;5019255;28;21424;-75
2022/11/26 01:39:43;;;;;;;29.10;8.37;;;4.60;99.90;;;;;;5016588;28;20399;-74
2022/11/26 01:42:33;;;;;;;22.45;7.65;;;4.60;99.90;;;;;;5011756;28;20390;-75
2022/11/26 01:44:59;;;;;;;28.77;8.60;;;4.60;99.90;;;;;;4998891;28;20805;-75
2022/11/26 01:47:27;;;;;;;28.23;9.33;;;4.60;99.90;;;;;;5028408;28;20411;-74
2022/11/26 01:50:28;;;;;;;28.52;9.32;;;4.50;99.90;;;;;;5004627;28;20980;-75
2022/11/26 01:52:58;;;;;;;34.92;9.80;;;4.50;99.90;;;;;;5008940;28;20519;-75
2022/11/26 01:55:24;;;;;;;36.63;9.15;;;4.50;99.90;;;;;;5021235;28;20457;-75
2022/11/26 01:57:50;;;;;;;32.42;9.32;;;4.50;99.90;;;;;;5024015;28;20408;-75
2022/11/26 02:00:17;;;;;;;31.65;9.68;;;4.50;99.90;;;;;;5004136;28;20917;-75
2022/11/26 02:02:44;;;;;;;30.05;8.98;;;4.50;99.90;;;;;;5022764;28;20419;-75
2022/11/26 02:05:23;;;;;;;30.88;9.40;;;4.50;99.90;;;;;;4993930;28;20984;-75
2022/11/26 02:07:50;;;;;;;29.35;9.40;;;4.40;99.90;;;;;;5035907;28;20424;-75
2022/11/26 02:10:16;;;;;;;35.40;9.50;;;4.40;99.90;;;;;;5035063;28;20415;-75
2022/11/26 02:12:42;;;;;;;33.53;10.52;;;4.40;99.90;;;;;;5015939;28;20757;-74
2022/11/26 02:15:09;;;;;;;25.15;9.63;;;4.40;99.90;;;;;;5030326;28;20485;-74
2022/11/26 02:18:05;;;;;;;34.30;10.32;;;4.40;99.90;;;;;;5018308;28;20402;-74
2022/11/26 02:20:53;;;;;;;32.70;9.83;;;4.40;99.90;;;;;;5048728;28;20405;-75
2022/11/26 02:23:47;;;;;;;30.13;9.82;;;4.40;99.90;;;;;;5034339;28;20478;-74
2022/11/26 02:26:24;;;;;;;33.47;10.60;;;4.30;99.90;;;;;;5032716;28;20422;-75
2022/11/26 02:29:07;;;;;;;38.47;11.98;;;4.30;99.90;;;;;;5017485;28;20441;-74
2022/11/26 02:31:47;;;;;;;26.75;10.32;;;4.30;99.90;;;;;;5046360;28;20413;-74
2022/11/26 02:34:22;;;;;;;31.97;11.10;;;4.30;99.90;;;;;;4999551;28;21036;-74
2022/11/26 02:37:05;;;;;;;34.60;12.02;;;4.30;99.90;;;;;;5013793;28;20440;-75
2022/11/26 02:39:31;;;;;;;33.83;10.80;;;4.30;99.90;;;;;;5040694;28;20418;-75
2022/11/26 02:42:01;;;;;;;32.60;10.83;;;4.30;99.90;;;;;;5028574;28;20408;-75
2022/11/26 02:44:38;;;;;;;38.53;11.17;;;4.30;99.90;;;;;;5029559;28;20419;-72
2022/11/26 02:47:10;;;;;;;36.67;11.05;;;4.20;99.90;;;;;;5037546;28;20405;-72
2022/11/26 02:49:38;;;;;;;33.42;10.63;;;4.20;99.90;;;;;;5039295;28;20401;-72
2022/11/26 02:52:05;;;;;;;29.88;10.90;;;4.20;99.90;;;;;;5028650;28;20492;-72
2022/11/26 02:54:32;;;;;;;34.63;10.75;;;4.20;99.90;;;;;;5044170;28;20428;-72
2022/11/26 02:57:01;;;;;;;34.72;11.60;;;4.10;99.90;;;;;;5023356;28;20411;-72
2022/11/26 02:59:27;;;;;;;32.67;11.37;;;4.10;99.90;;;;;;5034292;28;20403;-75
2022/11/26 03:02:13;;;;;;;34.73;11.47;;;4.10;99.90;;;;;;5047412;28;20420;-72
2022/11/26 03:04:42;;;;;;;35.17;11.73;;;4.10;99.90;;;;;;5047047;28;20756;-73
2022/11/26 03:07:09;;;;;;;31.15;11.55;;;4.10;99.90;;;;;;5037359;28;20403;-72
2022/11/26 03:09:52;;;;;;;35.17;11.88;;;4.10;99.90;;;;;;5012232;28;20403;-72
2022/11/26 03:12:18;;;;;;;36.28;12.85;;;4.10;99.90;;;;;;5040367;28;20947;-72
2022/11/26 03:14:45;;;;;;;33.80;12.48;;;4.10;99.90;;;;;;5028907;28;20458;-75
2022/11/26 03:17:10;;;;;;;39.35;12.65;;;4.10;99.90;;;;;;5006943;28;20484;-75
2022/11/26 03:19:36;;;;;;;42.38;13.70;;;4.10;99.90;;;;;;5041049;28;20422;-75
2022/11/26 03:22:02;;;;;;;33.97;12.60;;;4.10;99.90;;;;;;5010992;28;20498;-72
2022/11/26 03:24:28;;;;;;;36.77;12.67;;;4.10;99.90;;;;;;5045374;28;20409;-73
2022/11/26 03:26:53;;;;;;;37.53;12.40;;;4.10;99.90;;;;;;5033656;28;20406;-75
2022/11/26 03:29:19;;;;;;;35.67;12.60;;;4.10;99.90;;;;;;5017623;28;20410;-72
2022/11/26 03:31:44;;;;;;;40.93;12.40;;;4.10;99.90;;;;;;5028389;28;20426;-72
2022/11/26 03:34:10;;;;;;;38.90;12.40;;;4.10;99.90;;;;;;5028891;28;20470;-72
2022/11/26 03:36:35;;;;;;;35.93;12.83;;;4.10;99.90;;;;;;5032205;28;20405;-72
2022/11/26 03:39:01;;;;;;;36.80;13.32;;;4.10;99.90;;;;;;5021998;28;20766;-72
2022/11/26 03:41:27;;;;;;;40.13;13.00;;;4.10;99.90;;;;;;5017649;28;20418;-72
2022/11/26 03:43:53;;;;;;;38.17;12.60;;;4.10;99.90;;;;;;5014815;28;20936;-75
2022/11/26 03:46:19;;;;;;;33.73;12.40;;;4.00;99.90;;;;;;5048267;28;20411;-72
2022/11/26 03:48:44;;;;;;;40.83;12.75;;;4.00;99.90;;;;;;5029384;28;20718;-72
2022/11/26 03:51:10;;;;;;;42.67;13.33;;;4.00;99.90;;;;;;5029262;28;20435;-72
2022/11/26 03:53:36;;;;;;;38.67;12.85;;;3.90;99.90;;;;;;5032020;28;20434;-73
2022/11/26 03:56:01;;;;;;;39.20;13.50;;;3.90;99.90;;;;;;5032657;28;21273;-72
2022/11/26 03:58:27;;;;;;;38.43;12.87;;;3.90;99.90;;;;;;5031989;28;20407;-75
2022/11/26 04:00:52;;;;;;;41.22;13.40;;;3.80;99.90;;;;;;5037193;28;20764;-73
2022/11/26 04:03:18;;;;;;;39.63;13.53;;;3.80;99.90;;;;;;5039521;28;20408;-73
2022/11/26 04:05:43;;;;;;;41.75;13.60;;;3.90;99.90;;;;;;5050566;28;20810;-72
2022/11/26 04:08:09;;;;;;;37.13;13.88;;;3.80;99.90;;;;;;5029884;28;20447;-73
2022/11/26 04:10:35;;;;;;;38.40;12.87;;;3.80;99.90;;;;;;5030957;28;20409;-73
2022/11/26 04:13:01;;;;;;;33.92;12.90;;;3.80;99.90;;;;;;5043524;28;20431;-73
2022/11/26 04:15:26;;;;;;;42.35;13.45;;;3.80;99.90;;;;;;5028396;28;20414;-73
2022/11/26 04:17:52;;;;;;;41.40;13.87;;;3.80;99.90;;;;;;5041983;28;20757;-73
2022/11/26 04:20:17;;;;;;;39.50;13.25;;;3.70;99.90;;;;;;5048216;28;20429;-73
2022/11/26 04:22:43;;;;;;;42.40;13.27;;;3.70;99.90;;;;;;5049439;28;20907;-73
2022/11/26 04:25:09;;;;;;;41.37;13.53;;;3.70;99.90;;;;;;5031804;28;20405;-73
2022/11/26 04:27:35;;;;;;;44.33;13.88;;;3.70;99.90;;;;;;5037811;28;20414;-73
2022/11/26 04:30:00;;;;;;;44.20;14.35;;;3.70;99.90;;;;;;5046950;28;20767;-73
2022/11/26 04:32:26;;;;;;;38.33;14.03;;;3.70;99.90;;;;;;5039228;28;20414;-73
2022/11/26 04:34:51;;;;;;;40.95;13.60;;;3.70;99.90;;;;;;5033266;28;20410;-73
2022/11/26 04:37:17;;;;;;;40.37;13.63;;;3.70;99.90;;;;;;5036531;28;20393;-73
2022/11/26 04:39:43;;;;;;;48.38;14.70;;;3.70;99.90;;;;;;5037799;28;20409;-73
2022/11/26 04:42:08;;;;;;;44.40;14.27;;;3.60;99.90;;;;;;5050201;28;20405;-73
2022/11/26 04:44:34;;;;;;;44.37;14.53;;;3.60;99.90;;;;;;5035776;28;20409;-73
2022/11/26 04:46:59;;;;;;;40.03;14.13;;;3.70;99.90;;;;;;5020735;28;20408;-73
2022/11/26 04:49:25;;;;;;;45.37;15.23;;;3.70;99.90;;;;;;5023040;28;20405;-73
2022/11/26 04:51:51;;;;;;;40.15;14.63;;;3.70;99.90;;;;;;5050001;28;20982;-73
2022/11/26 04:54:16;;;;;;;38.87;14.37;;;3.70;99.90;;;;;;5037607;28;20428;-73
2022/11/26 04:56:42;;;;;;;43.07;15.37;;;3.70;99.90;;;;;;5039135;28;20901;-73
2022/11/26 04:59:07;;;;;;;45.42;15.60;;;3.70;99.90;;;;;;5026468;28;20415;-73
2022/11/26 05:01:33;;;;;;;44.50;16.23;;;3.70;99.90;;;;;;5031253;28;20772;-73
2022/11/26 05:03:59;;;;;;;52.88;15.80;;;3.70;99.90;;;;;;5012813;28;20412;-73
2022/11/26 05:06:24;;;;;;;45.58;16.58;;;3.70;99.90;;;;;;5032320;28;20411;-72
2022/11/26 05:08:50;;;;;;;48.47;15.70;;;3.70;99.90;;;;;;5029551;28;20503;-73
2022/11/26 05:11:16;;;;;;;43.33;15.63;;;3.70;99.90;;;;;;5022647;28;20411;-73
2022/11/26 05:13:41;;;;;;;52.20;16.67;;;3.70;99.90;;;;;;5035351;28;20425;-73
2022/11/26 05:16:07;;;;;;;48.95;17.60;;;3.70;99.90;;;;;;5049341;28;20417;-73
2022/11/26 05:18:32;;;;;;;47.25;16.45;;;3.60;99.90;;;;;;5028186;28;20976;-73
2022/11/26 05:20:58;;;;;;;50.63;16.97;;;3.60;99.90;;;;;;5040794;28;20412;-73
2022/11/26 05:23:24;;;;;;;47.58;17.20;;;3.70;99.90;;;;;;5027389;28;20844;-73
2022/11/26 05:25:50;;;;;;;46.53;18.37;;;3.60;99.90;;;;;;5040245;28;20413;-73
2022/11/26 05:28:15;;;;;;;45.10;17.60;;;3.70;99.90;;;;;;5036235;28;20485;-73
2022/11/26 05:30:41;;;;;;;48.00;18.17;;;3.70;99.90;;;;;;5039654;28;20658;-73
2022/11/26 05:33:07;;;;;;;52.55;19.15;;;3.60;99.90;;;;;;5034180;28;20968;-73
2022/11/26 05:35:32;;;;;;;51.50;19.00;;;3.60;99.90;;;;;;5028470;28;20913;-73
2022/11/26 05:37:58;;;;;;;54.63;19.97;;;3.60;99.90;;;;;;5012887;28;20492;-73
2022/11/26 05:40:25;;;;;;;53.53;20.17;;;3.70;99.90;;;;;;5029127;28;20598;-73
2022/11/26 05:42:51;;;;;;;60.97;21.38;;;3.60;99.90;;;;;;5012905;28;20854;-73
2022/11/26 05:45:16;;;;;;;52.57;20.50;;;3.60;99.90;;;;;;5038471;28;20436;-73
2022/11/26 05:47:42;;;;;;;60.00;22.42;;;3.60;99.90;;;;;;5032858;28;20414;-73
2022/11/26 05:50:08;;;;;;;53.97;22.43;;;3.60;99.90;;;;;;5039507;28;20405;-73
2022/11/26 05:52:34;;;;;;;57.28;22.23;;;3.70;99.90;;;;;;5028336;28;21016;-73
2022/11/26 05:55:00;;;;;;;59.17;22.77;;;3.70;99.90;;;;;;5018886;28;20395;-73
2022/11/26 05:57:25;;;;;;;57.23;22.67;;;3.70;99.90;;;;;;5040276;28;20911;-73
2022/11/26 05:59:51;;;;;;;62.03;23.20;;;3.70;99.90;;;;;;5048000;28;20477;-73
2022/11/26 06:02:17;;;;;;;60.37;23.80;;;3.70;99.90;;;;;;5048011;28;20889;-73
2022/11/26 06:04:42;;;;;;;63.08;24.25;;;3.70;99.90;;;;;;5045352;28;20889;-73
2022/11/26 06:07:09;;;;;;;68.82;24.58;;;3.60;99.90;;;;;;4998123;28;20411;-73
2022/11/26 06:09:34;;;;;;;55.00;23.38;;;3.60;99.90;;;;;;5031213;28;20441;-73
2022/11/26 06:12:01;;;;;;;62.67;23.85;;;3.70;99.90;;;;;;5031174;28;20431;-72
2022/11/26 06:14:26;;;;;;;60.50;23.67;;;3.70;99.90;;;;;;5032982;28;20549;-73
2022/11/26 06:16:52;;;;;;;59.75;24.23;;;3.70;99.90;;;;;;5042884;28;20967;-73
2022/11/26 06:19:18;;;;;;;61.67;23.73;;;3.70;99.90;;;;;;5018703;28;20411;-73
2022/11/26 06:21:43;;;;;;;62.53;24.73;;;3.70;99.90;;;;;;5040309;28;20417;-73
2022/11/26 06:24:09;;;;;;;68.83;25.10;;;3.70;99.90;;;;;;5027339;28;20446;-73
2022/11/26 06:26:35;;;;;;;63.10;25.60;;;3.70;99.90;;;;;;5045888;28;20410;-73
2022/11/26 06:29:00;;;;;;;62.00;24.90;;;3.70;99.90;;;;;;5038511;28;20481;-73
2022/11/26 06:31:26;;;;;;;68.13;25.25;;;3.70;99.90;;;;;;5043061;28;20419;-73
2022/11/26 06:33:54;;;;;;;58.70;23.63;;;3.80;99.90;;;;;;5013281;28;20537;-73
2022/11/26 06:36:20;;;;;;;61.47;25.35;;;3.70;99.90;;;;;;5028074;28;20945;-73
2022/11/26 06:38:45;;;;;;;60.38;24.02;;;3.70;99.90;;;;;;5039547;28;20399;-73
2022/11/26 06:41:11;;;;;;;63.00;24.73;;;3.70;99.90;;;;;;5026706;28;20812;-73
2022/11/26 06:43:36;;;;;;;63.42;25.00;;;3.70;99.90;;;;;;5039396;28;20444;-72
2022/11/26 06:46:05;;;;;;;60.57;24.37;;;3.70;99.90;;;;;;5032045;28;20409;-73
2022/11/26 06:48:31;;;;;;;56.50;23.90;;;3.70;99.90;;;;;;5047454;28;20500;-73
2022/11/26 06:51:01;;;;;;;66.35;25.08;;;3.70;99.90;;;;;;5047043;28;20431;-73
2022/11/26 06:53:27;;;;;;;62.00;24.35;;;3.70;99.90;;;;;;5047448;28;20433;-73
2022/11/26 06:55:52;;;;;;;63.90;25.17;;;3.70;99.90;;;;;;5044690;28;20477;-73
2022/11/26 06:58:18;;;;;;;64.70;24.80;;;3.70;99.90;;;;;;5004729;28;20513;-73
2022/11/26 07:00:43;;;;;;;61.35;24.58;;;3.70;99.90;;;;;;5046328;28;20416;-73
2022/11/26 07:03:09;;;;;;;66.87;25.10;;;3.70;99.90;;;;;;5029219;28;20407;-73
2022/11/26 07:05:35;;;;;;;65.57;25.58;;;3.70;99.90;;;;;;5031883;28;20467;-73
2022/11/26 07:08:01;;;;;;;58.93;25.67;;;3.70;99.90;;;;;;5037557;28;20411;-73
2022/11/26 07:10:27;;;;;;;61.83;24.73;;;3.70;99.90;;;;;;4994425;28;20438;-73
2022/11/26 07:12:53;;;;;;;61.30;25.00;;;3.80;99.90;;;;;;4994351;28;20450;-73
2022/11/26 07:15:19;;;;;;;58.93;25.03;;;3.70;99.90;;;;;;4993933;28;20461;-73
2022/11/26 07:17:44;;;;;;;66.47;25.52;;;3.70;99.90;;;;;;5038574;28;20753;-73
2022/11/26 07:20:10;;;;;;;67.20;25.83;;;3.70;99.90;;;;;;5043882;28;20411;-73
2022/11/26 07:22:36;;;;;;;68.53;25.95;;;3.80;99.90;;;;;;5038726;28;20401;-73
2022/11/26 07:25:02;;;;;;;54.97;24.30;;;3.70;99.90;;;;;;5044149;28;20487;-72
2022/11/26 07:27:27;;;;;;;63.30;26.02;;;3.80;99.90;;;;;;5046931;28;20806;-73
2022/11/26 07:29:53;;;;;;;64.10;27.00;;;3.70;99.90;;;;;;5025737;28;20402;-73
2022/11/26 07:32:19;;;;;;;67.50;27.10;;;3.70;99.90;;;;;;5028162;28;20801;-73
2022/11/26 07:34:44;;;;;;;61.70;26.35;;;3.80;99.90;;;;;;5027658;28;20438;-73
2022/11/26 07:37:10;;;;;;;63.07;26.80;;;3.80;99.90;;;;;;5027339;28;20403;-73
2022/11/26 07:39:36;;;;;;;73.40;28.55;;;3.80;99.90;;;;;;5043039;28;20400;-73
2022/11/26 07:42:01;;;;;;;67.20;27.50;;;3.80;99.90;;;;;;5030076;28;20410;-73
2022/11/26 07:44:27;;;;;;;72.63;28.27;;;3.80;99.90;;;;;;4995675;28;20430;-73
2022/11/26 07:46:52;;;;;;;70.55;28.42;;;3.80;99.90;;;;;;5037134;28;20403;-73
2022/11/26 07:49:18;;;;;;;69.37;27.63;;;3.80;99.90;;;;;;5029772;28;20429;-73
2022/11/26 07:51:43;;;;;;;74.43;30.23;;;3.80;99.90;;;;;;5046812;28;20491;-73
2022/11/26 07:54:11;;;;;;;66.90;29.23;;;3.80;99.90;;;;;;5033783;28;20437;-73
2022/11/26 07:56:36;;;;;;;79.03;29.20;;;3.90;99.90;;;;;;5037081;28;20410;-73
2022/11/26 07:59:02;;;;;;;70.20;29.27;;;3.90;99.90;;;;;;5026313;28;20769;-73
2022/11/26 08:01:28;;;;;;;79.55;29.02;;;3.90;99.90;;;;;;5027805;28;20403;-73
2022/11/26 08:03:55;;;;;;;81.13;30.60;;;3.90;99.90;;;;;;5026893;28;20478;-73
2022/11/26 08:06:23;;;;;;;83.68;31.27;;;3.90;99.90;;;;;;5032781;28;20423;-73
2022/11/26 08:08:49;;;;;;;82.70;31.05;;;3.90;99.90;;;;;;5008647;28;21177;-73
2022/11/26 08:11:15;;;;;;;83.40;31.37;;;3.90;99.90;;;;;;5037338;28;20397;-73
2022/11/26 08:13:42;;;;;;;79.47;31.30;;;4.00;99.90;;;;;;5034978;28;21118;-73
2022/11/26 08:16:08;;;;;;;93.45;31.67;;;4.00;99.90;;;;;;5009073;28;20407;-73
2022/11/26 08:18:34;;;;;;;93.87;33.30;;;4.00;99.90;;;;;;5039617;28;20768;-73
2022/11/26 08:20:59;;;;;;;108.97;36.23;;;4.00;99.90;;;;;;5026792;28;20893;-73
2022/11/26 08:23:28;;;;;;;100.15;35.28;;;4.00;99.90;;;;;;5010796;28;20913;-73
2022/11/26 08:25:53;;;;;;;95.70;34.60;;;4.10;99.90;;;;;;5030504;28;20395;-73
2022/11/26 08:28:19;;;;;;;109.97;36.85;;;4.20;99.90;;;;;;5047089;28;20409;-73
2022/11/26 08:30:45;;;;;;;119.87;37.93;;;4.20;99.90;;;;;;5042019;28;20823;-73
2022/11/26 08:33:10;;;;;;;141.20;39.00;;;4.20;99.90;;;;;;5030232;28;20429;-73
2022/11/26 08:35:36;;;;;;;148.90;39.70;;;4.30;99.90;;;;;;5050004;28;20401;-73
2022/11/26 08:38:02;;;;;;;213.07;45.33;;;4.40;99.90;;;;;;5048678;28;20895;-73
2022/11/26 08:40:28;;;;;;;244.07;47.58;;;4.40;99.90;;;;;;5032480;28;20409;-73
2022/11/26 08:42:54;;;;;;;186.03;43.30;;;4.50;99.90;;;;;;5049008;28;20412;-73
2022/11/26 08:45:19;;;;;;;205.95;44.60;;;4.50;99.90;;;;;;5031597;28;20489;-73
2022/11/26 08:47:45;;;;;;;184.48;43.17;;;4.60;99.90;;;;;;5015330;28;20490;-73
2022/11/26 08:50:11;;;;;;;143.50;39.37;;;4.60;99.90;;;;;;5002906;28;20418;-73
2022/11/26 08:52:36;;;;;;;129.80;38.47;;;4.70;99.90;;;;;;5046288;28;20394;-73
2022/11/26 08:55:03;;;;;;;151.50;42.67;;;4.70;99.90;;;;;;5040059;28;20399;-73
2022/11/26 08:57:28;;;;;;;131.88;40.67;;;4.80;99.90;;;;;;5043611;28;20442;-73
2022/11/26 08:59:54;;;;;;;141.25;42.05;;;4.80;99.90;;;;;;5030031;28;20431;-73
2022/11/26 09:02:21;;;;;;;122.88;40.20;;;4.90;99.90;;;;;;5024946;28;20809;-73
2022/11/26 09:04:47;;;;;;;123.65;41.92;;;4.90;99.90;;;;;;5030462;28;20407;-73
2022/11/26 09:07:12;;;;;;;99.47;37.75;;;4.90;99.90;;;;;;5030186;28;20959;-73
2022/11/26 09:09:38;;;;;;;111.10;38.80;;;5.00;99.90;;;;;;5030597;28;20465;-73
2022/11/26 09:12:04;;;;;;;104.33;38.20;;;5.10;99.90;;;;;;5030326;28;20765;-73
2022/11/26 09:14:35;;;;;;;91.40;37.08;;;5.10;99.90;;;;;;5024395;28;20431;-73
2022/11/26 09:17:01;;;;;;;93.22;36.03;;;5.20;99.90;;;;;;5025223;28;20407;-73
2022/11/26 09:19:27;;;;;;;89.82;36.53;;;5.30;99.90;;;;;;5004330;28;20974;-73
2022/11/26 09:21:54;;;;;;;84.13;34.95;;;5.30;99.90;;;;;;5003186;28;20419;-73
2022/11/26 09:24:20;;;;;;;77.30;33.93;;;5.40;99.90;;;;;;5029057;28;20410;-74
2022/11/26 09:26:49;;;;;;;79.38;33.78;;;5.50;99.90;;;;;;5028034;28;20403;-73
2022/11/26 09:29:20;;;;;;;86.05;34.63;;;5.60;99.90;;;;;;5026237;28;20802;-73
2022/11/26 09:31:47;;;;;;;80.65;34.00;;;5.70;99.90;;;;;;5023087;28;20474;-73
2022/11/26 09:34:13;;;;;;;71.28;32.55;;;5.70;99.90;;;;;;5011610;28;20433;-74
2022/11/26 09:36:39;;;;;;;72.38;33.08;;;5.80;99.90;;;;;;5011988;28;20462;-73
2022/11/26 09:39:04;;;;;;;68.50;32.43;;;5.90;99.90;;;;;;5024062;28;20407;-74
2022/11/26 09:41:49;;;;;;;64.18;30.92;;;6.00;99.90;;;;;;5023120;28;20488;-73
2022/11/26 09:44:36;;;;;;;61.10;29.77;;;6.00;99.90;;;;;;4989623;28;20422;-73
2022/11/26 09:47:32;;;;;;;63.85;30.00;;;6.10;99.90;;;;;;5011801;28;20425;-73
2022/11/26 09:50:05;;;;;;;58.70;29.73;;;6.20;99.90;;;;;;5013118;28;21056;-73
2022/11/26 09:52:54;;;;;;;62.33;29.60;;;6.20;99.90;;;;;;5011226;28;20412;-74
2022/11/26 09:55:23;;;;;;;60.85;28.63;;;6.30;99.90;;;;;;5029289;28;20426;-73
2022/11/26 09:58:12;;;;;;;58.53;27.98;;;6.40;99.90;;;;;;5022840;28;20829;-73
2022/11/26 10:00:43;;;;;;;62.42;27.65;;;6.50;99.90;;;;;;5028771;28;20955;-73
2022/11/26 10:03:24;;;;;;;55.80;26.63;;;6.60;99.90;;;;;;5011241;28;20419;-74
2022/11/26 10:05:53;;;;;;;56.88;26.85;;;6.60;99.90;;;;;;5016874;28;20933;-73
2022/11/26 10:08:18;;;;;;;52.88;25.63;;;6.70;99.90;;;;;;5013173;28;20419;-74
2022/11/26 10:11:13;;;;;;;48.00;24.13;;;6.80;99.90;;;;;;5028106;28;20423;-73
2022/11/26 10:14:04;;;;;;;51.78;23.80;;;6.80;99.90;;;;;;5015089;28;20439;-73
2022/11/26 10:16:52;;;;;;;48.65;22.63;;;6.90;99.90;;;;;;5010482;28;20415;-73
2022/11/26 10:19:40;;;;;;;50.10;22.70;;;6.90;99.90;;;;;;5001820;28;21012;-73
2022/11/26 10:22:41;;;;;;;46.63;22.80;;;6.90;99.90;;;;;;5022583;28;21043;-73
2022/11/26 10:25:17;;;;;;;44.38;22.20;;;7.00;99.90;;;;;;5010963;28;20493;-73
2022/11/26 10:27:42;;;;;;;42.30;21.83;;;7.10;99.90;;;;;;5016608;28;20421;-73
2022/11/26 10:30:25;;;;;;;48.10;22.63;;;7.20;99.90;;;;;;5022245;28;20408;-73
2022/11/26 10:32:53;;;;;;;48.33;23.42;;;7.30;99.90;;;;;;5011867;28;20412;-73
2022/11/26 10:35:27;;;;;;;47.22;21.80;;;7.40;99.90;;;;;;5029226;28;20415;-73
2022/11/26 10:37:54;;;;;;;44.10;20.88;;;7.50;99.90;;;;;;5009455;28;20676;-73
2022/11/26 10:40:25;;;;;;;39.75;20.20;;;7.50;99.90;;;;;;5027790;28;20391;-73
2022/11/26 10:43:20;;;;;;;37.33;20.13;;;7.60;99.90;;;;;;5024270;28;20483;-73
2022/11/26 10:45:51;;;;;;;41.67;20.27;;;7.70;99.90;;;;;;5021409;28;20403;-73
2022/11/26 10:48:31;;;;;;;38.97;18.70;;;7.80;99.90;;;;;;5009158;28;20992;-73
2022/11/26 10:51:15;;;;;;;35.78;18.05;;;7.90;99.90;;;;;;5023794;28;21375;-73
2022/11/26 10:53:49;;;;;;;40.60;18.70;;;7.90;99.90;;;;;;5027009;28;20484;-74
2022/11/26 10:56:28;;;;;;;39.45;17.77;;;7.90;99.90;;;;;;5007718;28;20479;-74
2022/11/26 10:59:00;;;;;;;36.92;17.42;;;7.90;99.90;;;;;;5011767;28;20417;-74
2022/11/26 11:01:34;;;;;;;37.77;17.67;;;7.90;99.90;;;;;;5009644;28;20397;-73
2022/11/26 11:04:01;;;;;;;40.45;17.15;;;7.90;99.90;;;;;;5025498;28;20481;-73
2022/11/26 11:06:40;;;;;;;36.33;17.70;;;7.90;99.90;;;;;;5026820;28;20941;-73
2022/11/26 11:09:23;;;;;;;37.83;17.27;;;7.90;99.90;;;;;;5026304;28;20430;-74
2022/11/26 11:12:09;;;;;;;38.08;16.75;;;8.00;99.90;;;;;;5014881;28;20779;-73
2022/11/26 11:14:35;;;;;;;33.17;16.90;;;8.00;99.90;;;;;;5021614;28;20534;-74
2022/11/26 11:17:00;;;;;;;36.65;16.52;;;8.00;99.90;;;;;;5027323;28;20769;-73
2022/11/26 11:19:26;;;;;;;36.58;16.92;;;7.90;99.90;;;;;;5010574;28;20419;-73
2022/11/26 11:21:52;;;;;;;38.17;17.00;;;8.00;99.90;;;;;;5021121;28;20488;-73
2022/11/26 11:24:27;;;;;;;39.45;17.92;;;8.00;99.90;;;;;;5027967;28;20411;-73
2022/11/26 11:26:59;;;;;;;35.97;17.42;;;7.90;99.90;;;;;;5014273;28;20494;-73
2022/11/26 11:29:38;;;;;;;37.90;17.30;;;8.00;99.90;;;;;;4997512;28;20501;-73
2022/11/26 11:32:24;;;;;;;35.70;17.83;;;8.00;99.90;;;;;;4975972;28;20437;-75
2022/11/26 11:34:50;;;;;;;35.08;16.92;;;8.00;99.90;;;;;;5023765;28;21039;-73
2022/11/26 11:37:20;;;;;;;37.90;18.55;;;8.00;99.90;;;;;;5022261;28;20416;-73
2022/11/26 11:40:03;;;;;;;40.83;17.98;;;8.00;99.90;;;;;;5013458;28;20465;-73
2022/11/26 11:42:29;;;;;;;41.38;18.80;;;8.10;99.90;;;;;;5007817;28;20414;-74
2022/11/26 11:44:57;;;;;;;40.80;19.13;;;8.10;99.90;;;;;;5007952;28;20407;-74
2022/11/26 11:47:40;;;;;;;41.17;20.23;;;8.10;99.90;;;;;;5013554;28;20495;-73
2022/11/26 11:50:24;;;;;;;40.15;19.83;;;8.20;99.90;;;;;;5017721;28;20813;-73
2022/11/26 11:53:08;;;;;;;41.00;20.30;;;8.10;99.90;;;;;;5008817;28;20409;-74
2022/11/26 11:55:54;;;;;;;41.80;20.88;;;8.10;99.90;;;;;;5004313;28;20446;-73
2022/11/26 11:59:05;;;;;;;40.97;21.47;;;8.20;99.90;;;;;;5024287;28;20418;-74
2022/11/26 12:02:00;;;;;;;44.33;21.48;;;8.20;99.90;;;;;;5004314;28;20471;-73
2022/11/26 12:05:21;;;;;;;43.45;22.70;;;8.20;99.90;;;;;;4967029;28;20904;-73
2022/11/26 12:08:00;;;;;;;44.10;23.08;;;8.20;99.90;;;;;;5017313;28;20595;-73
2022/11/26 12:10:57;;;;;;;47.17;24.83;;;8.20;99.90;;;;;;5050296;28;20412;-74
2022/11/26 12:13:24;;;;;;;43.40;23.67;;;8.20;99.90;;;;;;5049080;28;20910;-73
2022/11/26 12:16:01;;;;;;;43.23;24.20;;;8.30;99.90;;;;;;5040125;28;20759;-73
2022/11/26 12:18:52;;;;;;;44.80;24.02;;;8.20;99.90;;;;;;5038144;28;20439;-73
2022/11/26 12:21:44;;;;;;;47.65;23.90;;;8.30;99.90;;;;;;5049797;28;20413;-73
2022/11/26 12:24:30;;;;;;;48.00;23.92;;;8.30;99.90;;;;;;5049863;28;21054;-73
2022/11/26 12:27:22;;;;;;;48.85;24.33;;;8.30;99.90;;;;;;5031605;28;20479;-74
2022/11/26 12:29:56;;;;;;;47.33;25.50;;;8.30;99.90;;;;;;5047047;28;21000;-73
2022/11/26 12:32:32;;;;;;;50.77;24.27;;;8.30;99.90;;;;;;5032223;28;21320;-74
2022/11/26 12:35:09;;;;;;;43.65;23.70;;;8.30;99.90;;;;;;5044564;28;20439;-74
2022/11/26 12:37:42;;;;;;;42.85;23.45;;;8.30;99.90;;;;;;5032443;28;20418;-74
2022/11/26 12:40:27;;;;;;;48.47;24.35;;;8.40;99.90;;;;;;5049720;28;20401;-74
2022/11/26 12:43:05;;;;;;;49.72;23.63;;;8.30;99.90;;;;;;5029828;28;20892;-73
2022/11/26 12:45:56;;;;;;;45.80;23.17;;;8.40;99.90;;;;;;5042500;28;20416;-74
2022/11/26 12:48:49;;;;;;;50.50;24.77;;;8.30;99.90;;;;;;5020228;28;20461;-74
2022/11/26 12:51:15;;;;;;;53.17;25.60;;;8.30;99.90;;;;;;5031290;28;20415;-73
2022/11/26 12:53:51;;;;;;;54.27;26.97;;;8.30;99.90;;;;;;5030886;28;20955;-74